sensor_id;sensor_type;location;lat;lon;timestamp;temperature;humidity
48535;DHT22;34323;52.022;5.686;2023-05-10T00:02:08;20.50;99.90
48535;DHT22;34323;52.022;5.686;2023-05-10T00:04:33;20.40;99.90
48535;DHT22;34323;52.022;5.686;2023-05-10T00:06:59;20.50;99.90
48535;DHT22;34323;52.022;5.686;2023-05-10T00:09:25;20.60;99.90
48535;DHT22;34323;52.022;5.686;2023-05-10T00:11:50;20.60;99.90
48535;DHT22;34323;52.022;5.686;2023-05-10T00:14:16;20.70;99.90
48535;DHT22;34323;52.022;5.686;2023-05-10T00:16:42;20.50;99.90
48535;DHT22;34323;52.022;5.686;2023-05-10T00:19:07;20.30;99.90
48535;DHT22;34323;52.022;5.686;2023-05-10T00:21:33;20.60;99.90
48535;DHT22;34323;52.022;5.686;2023-05-10T00:23:59;20.50;99.90
48535;DHT22;34323;52.022;5.686;2023-05-10T00:26:25;20.20;99.90
48535;DHT22;34323;52.022;5.686;2023-05-10T00:28:50;20.10;99.90
48535;DHT22;34323;52.022;5.686;2023-05-10T00:31:16;19.90;99.90
48535;DHT22;34323;52.022;5.686;2023-05-10T00:33:41;20.10;99.90
48535;DHT22;34323;52.022;5.686;2023-05-10T00:36:07;20.10;99.90
48535;DHT22;34323;52.022;5.686;2023-05-10T00:38:33;20.20;99.90
48535;DHT22;34323;52.022;5.686;2023-05-10T00:40:59;20.40;99.90
48535;DHT22;34323;52.022;5.686;2023-05-10T00:43:24;20.40;99.90
48535;DHT22;34323;52.022;5.686;2023-05-10T00:45:50;20.40;99.90
48535;DHT22;34323;52.022;5.686;2023-05-10T00:48:16;20.30;99.90
48535;DHT22;34323;52.022;5.686;2023-05-10T00:50:41;20.20;99.90
48535;DHT22;34323;52.022;5.686;2023-05-10T00:53:08;20.20;99.90
48535;DHT22;34323;52.022;5.686;2023-05-10T00:55:34;20.20;99.90
48535;DHT22;34323;52.022;5.686;2023-05-10T00:58:00;20.40;99.90
48535;DHT22;34323;52.022;5.686;2023-05-10T01:00:25;20.50;99.90
48535;DHT22;34323;52.022;5.686;2023-05-10T01:02:53;20.40;99.90
48535;DHT22;34323;52.022;5.686;2023-05-10T01:05:18;20.30;99.90
48535;DHT22;34323;52.022;5.686;2023-05-10T01:07:44;20.30;99.90
48535;DHT22;34323;52.022;5.686;2023-05-10T01:10:10;20.30;99.90
48535;DHT22;34323;52.022;5.686;2023-05-10T01:12:38;20.30;99.90
48535;DHT22;34323;52.022;5.686;2023-05-10T01:15:08;20.10;99.90
48535;DHT22;34323;52.022;5.686;2023-05-10T01:17:38;19.70;99.90
48535;DHT22;34323;52.022;5.686;2023-05-10T01:20:05;19.60;99.90
48535;DHT22;34323;52.022;5.686;2023-05-10T01:23:07;19.60;99.90
48535;DHT22;34323;52.022;5.686;2023-05-10T01:34:19;19.40;99.90
48535;DHT22;34323;52.022;5.686;2023-05-10T01:36:53;19.70;99.90
48535;DHT22;34323;52.022;5.686;2023-05-10T01:39:32;20.00;99.90
48535;DHT22;34323;52.022;5.686;2023-05-10T01:42:08;19.90;99.90
48535;DHT22;34323;52.022;5.686;2023-05-10T01:44:52;19.60;99.90
48535;DHT22;34323;52.022;5.686;2023-05-10T01:47:34;19.50;99.90
48535;DHT22;34323;52.022;5.686;2023-05-10T01:50:03;19.60;99.90
48535;DHT22;34323;52.022;5.686;2023-05-10T01:52:42;19.70;99.90
48535;DHT22;34323;52.022;5.686;2023-05-10T01:55:16;19.80;99.90
48535;DHT22;34323;52.022;5.686;2023-05-10T01:57:44;19.90;99.90
48535;DHT22;34323;52.022;5.686;2023-05-10T02:00:12;19.90;99.90
48535;DHT22;34323;52.022;5.686;2023-05-10T02:02:40;20.10;99.90
48535;DHT22;34323;52.022;5.686;2023-05-10T02:05:08;20.20;99.90
48535;DHT22;34323;52.022;5.686;2023-05-10T02:07:36;20.20;99.90
48535;DHT22;34323;52.022;5.686;2023-05-10T02:10:05;20.20;99.90
48535;DHT22;34323;52.022;5.686;2023-05-10T02:12:32;20.30;99.90
48535;DHT22;34323;52.022;5.686;2023-05-10T02:15:02;20.40;99.90
48535;DHT22;34323;52.022;5.686;2023-05-10T02:17:31;20.20;99.90
48535;DHT22;34323;52.022;5.686;2023-05-10T02:19:58;20.00;99.90
48535;DHT22;34323;52.022;5.686;2023-05-10T02:22:26;19.70;99.90
48535;DHT22;34323;52.022;5.686;2023-05-10T02:24:54;19.50;99.90
48535;DHT22;34323;52.022;5.686;2023-05-10T02:27:22;19.50;99.90
48535;DHT22;34323;52.022;5.686;2023-05-10T02:29:48;19.30;99.90
48535;DHT22;34323;52.022;5.686;2023-05-10T02:32:15;19.40;99.90
48535;DHT22;34323;52.022;5.686;2023-05-10T02:34:42;19.60;99.90
48535;DHT22;34323;52.022;5.686;2023-05-10T02:37:10;19.70;99.90
48535;DHT22;34323;52.022;5.686;2023-05-10T02:39:36;19.50;99.90
48535;DHT22;34323;52.022;5.686;2023-05-10T02:42:03;19.60;99.90
48535;DHT22;34323;52.022;5.686;2023-05-10T02:44:30;19.50;99.90
48535;DHT22;34323;52.022;5.686;2023-05-10T02:46:57;19.70;99.90
48535;DHT22;34323;52.022;5.686;2023-05-10T02:49:23;19.30;99.90
48535;DHT22;34323;52.022;5.686;2023-05-10T02:51:52;19.20;99.90
48535;DHT22;34323;52.022;5.686;2023-05-10T02:54:20;19.30;99.90
48535;DHT22;34323;52.022;5.686;2023-05-10T02:56:51;19.40;99.90
48535;DHT22;34323;52.022;5.686;2023-05-10T02:59:19;19.40;99.90
48535;DHT22;34323;52.022;5.686;2023-05-10T03:01:44;19.40;99.90
48535;DHT22;34323;52.022;5.686;2023-05-10T03:04:10;19.30;99.90
48535;DHT22;34323;52.022;5.686;2023-05-10T03:06:36;19.30;99.90
48535;DHT22;34323;52.022;5.686;2023-05-10T03:09:02;19.30;99.90
48535;DHT22;34323;52.022;5.686;2023-05-10T03:11:39;19.30;99.90
48535;DHT22;34323;52.022;5.686;2023-05-10T03:20:29;19.00;99.90
48535;DHT22;34323;52.022;5.686;2023-05-10T03:23:05;19.20;99.90
48535;DHT22;34323;52.022;5.686;2023-05-10T03:25:32;18.80;99.90
48535;DHT22;34323;52.022;5.686;2023-05-10T03:28:01;18.90;99.90
48535;DHT22;34323;52.022;5.686;2023-05-10T03:30:27;18.70;99.90
48535;DHT22;34323;52.022;5.686;2023-05-10T03:32:53;18.70;99.90
48535;DHT22;34323;52.022;5.686;2023-05-10T03:35:19;18.90;99.90
48535;DHT22;34323;52.022;5.686;2023-05-10T03:37:45;19.00;99.90
48535;DHT22;34323;52.022;5.686;2023-05-10T03:40:11;18.80;99.90
48535;DHT22;34323;52.022;5.686;2023-05-10T03:42:36;18.80;99.90
48535;DHT22;34323;52.022;5.686;2023-05-10T03:45:02;18.80;99.90
48535;DHT22;34323;52.022;5.686;2023-05-10T03:47:28;18.80;99.90
48535;DHT22;34323;52.022;5.686;2023-05-10T03:49:54;19.00;99.90
48535;DHT22;34323;52.022;5.686;2023-05-10T03:52:20;19.20;99.90
48535;DHT22;34323;52.022;5.686;2023-05-10T03:54:45;19.30;99.90
48535;DHT22;34323;52.022;5.686;2023-05-10T03:57:11;19.40;99.90
48535;DHT22;34323;52.022;5.686;2023-05-10T03:59:37;19.10;99.90
48535;DHT22;34323;52.022;5.686;2023-05-10T04:02:02;18.90;99.90
48535;DHT22;34323;52.022;5.686;2023-05-10T04:04:28;18.80;99.90
48535;DHT22;34323;52.022;5.686;2023-05-10T04:06:53;18.90;99.90
48535;DHT22;34323;52.022;5.686;2023-05-10T04:09:20;18.80;99.90
48535;DHT22;34323;52.022;5.686;2023-05-10T04:11:45;18.80;99.90
48535;DHT22;34323;52.022;5.686;2023-05-10T04:14:11;18.80;99.90
48535;DHT22;34323;52.022;5.686;2023-05-10T04:16:36;19.00;99.90
48535;DHT22;34323;52.022;5.686;2023-05-10T04:19:02;19.00;99.90
48535;DHT22;34323;52.022;5.686;2023-05-10T04:21:28;19.00;99.90
48535;DHT22;34323;52.022;5.686;2023-05-10T04:23:53;19.10;99.90
48535;DHT22;34323;52.022;5.686;2023-05-10T04:26:19;19.10;99.90
48535;DHT22;34323;52.022;5.686;2023-05-10T04:28:45;19.20;99.90
48535;DHT22;34323;52.022;5.686;2023-05-10T04:31:10;19.20;99.90
48535;DHT22;34323;52.022;5.686;2023-05-10T04:33:36;18.80;99.90
48535;DHT22;34323;52.022;5.686;2023-05-10T04:36:02;18.80;99.90
48535;DHT22;34323;52.022;5.686;2023-05-10T04:38:29;18.50;99.90
48535;DHT22;34323;52.022;5.686;2023-05-10T04:41:07;18.60;99.90
48535;DHT22;34323;52.022;5.686;2023-05-10T04:43:32;18.40;99.90
48535;DHT22;34323;52.022;5.686;2023-05-10T04:45:58;18.50;99.90
48535;DHT22;34323;52.022;5.686;2023-05-10T04:48:23;18.60;99.90
48535;DHT22;34323;52.022;5.686;2023-05-10T04:50:49;19.10;99.90
48535;DHT22;34323;52.022;5.686;2023-05-10T04:53:14;19.30;99.90
48535;DHT22;34323;52.022;5.686;2023-05-10T04:55:40;19.10;99.90
48535;DHT22;34323;52.022;5.686;2023-05-10T04:58:05;18.60;99.90
48535;DHT22;34323;52.022;5.686;2023-05-10T05:00:31;18.60;99.90
48535;DHT22;34323;52.022;5.686;2023-05-10T05:02:58;18.40;99.90
48535;DHT22;34323;52.022;5.686;2023-05-10T05:05:23;18.30;99.90
48535;DHT22;34323;52.022;5.686;2023-05-10T05:07:49;18.50;99.90
48535;DHT22;34323;52.022;5.686;2023-05-10T05:10:14;18.80;99.90
48535;DHT22;34323;52.022;5.686;2023-05-10T05:12:40;19.10;99.90
48535;DHT22;34323;52.022;5.686;2023-05-10T05:15:06;18.60;99.90
48535;DHT22;34323;52.022;5.686;2023-05-10T05:17:33;18.60;99.90
48535;DHT22;34323;52.022;5.686;2023-05-10T05:19:59;18.80;99.90
48535;DHT22;34323;52.022;5.686;2023-05-10T05:22:24;18.70;99.90
48535;DHT22;34323;52.022;5.686;2023-05-10T05:24:56;18.80;99.90
48535;DHT22;34323;52.022;5.686;2023-05-10T05:27:22;18.90;99.90
48535;DHT22;34323;52.022;5.686;2023-05-10T05:29:50;18.90;99.90
48535;DHT22;34323;52.022;5.686;2023-05-10T05:32:16;19.10;99.90
48535;DHT22;34323;52.022;5.686;2023-05-10T05:34:43;19.00;99.90
48535;DHT22;34323;52.022;5.686;2023-05-10T05:37:13;19.00;99.90
48535;DHT22;34323;52.022;5.686;2023-05-10T05:39:38;19.40;99.90
48535;DHT22;34323;52.022;5.686;2023-05-10T05:42:04;19.60;99.90
48535;DHT22;34323;52.022;5.686;2023-05-10T05:44:29;19.60;99.90
48535;DHT22;34323;52.022;5.686;2023-05-10T05:46:55;19.70;99.90
48535;DHT22;34323;52.022;5.686;2023-05-10T05:49:21;19.80;99.90
48535;DHT22;34323;52.022;5.686;2023-05-10T05:51:46;19.50;99.90
48535;DHT22;34323;52.022;5.686;2023-05-10T05:54:14;19.60;99.90
48535;DHT22;34323;52.022;5.686;2023-05-10T05:56:39;19.30;99.90
48535;DHT22;34323;52.022;5.686;2023-05-10T05:59:05;19.30;99.90
48535;DHT22;34323;52.022;5.686;2023-05-10T06:01:31;19.50;99.90
48535;DHT22;34323;52.022;5.686;2023-05-10T06:03:56;19.60;99.90
48535;DHT22;34323;52.022;5.686;2023-05-10T06:06:22;19.60;99.90
48535;DHT22;34323;52.022;5.686;2023-05-10T06:08:47;19.50;99.90
48535;DHT22;34323;52.022;5.686;2023-05-10T06:11:13;19.10;99.90
48535;DHT22;34323;52.022;5.686;2023-05-10T06:13:38;19.10;99.90
48535;DHT22;34323;52.022;5.686;2023-05-10T06:16:04;19.20;99.90
48535;DHT22;34323;52.022;5.686;2023-05-10T06:18:30;19.50;99.90
48535;DHT22;34323;52.022;5.686;2023-05-10T06:20:56;19.70;99.90
48535;DHT22;34323;52.022;5.686;2023-05-10T06:23:22;19.60;99.90
48535;DHT22;34323;52.022;5.686;2023-05-10T06:25:48;19.30;99.90
48535;DHT22;34323;52.022;5.686;2023-05-10T06:28:14;19.30;99.90
48535;DHT22;34323;52.022;5.686;2023-05-10T06:30:39;19.50;99.90
48535;DHT22;34323;52.022;5.686;2023-05-10T06:33:05;19.50;99.90
48535;DHT22;34323;52.022;5.686;2023-05-10T06:35:30;19.60;99.90
48535;DHT22;34323;52.022;5.686;2023-05-10T06:37:58;19.50;99.90
48535;DHT22;34323;52.022;5.686;2023-05-10T06:40:24;19.40;99.90
48535;DHT22;34323;52.022;5.686;2023-05-10T06:42:49;19.50;99.90
48535;DHT22;34323;52.022;5.686;2023-05-10T06:45:15;19.50;99.90
48535;DHT22;34323;52.022;5.686;2023-05-10T06:47:41;19.40;99.90
48535;DHT22;34323;52.022;5.686;2023-05-10T06:50:10;19.20;99.90
48535;DHT22;34323;52.022;5.686;2023-05-10T06:52:37;18.80;99.90
48535;DHT22;34323;52.022;5.686;2023-05-10T06:55:03;18.60;99.90
48535;DHT22;34323;52.022;5.686;2023-05-10T06:57:29;18.60;99.90
48535;DHT22;34323;52.022;5.686;2023-05-10T06:59:55;18.60;99.90
48535;DHT22;34323;52.022;5.686;2023-05-10T07:02:22;18.80;99.90
48535;DHT22;34323;52.022;5.686;2023-05-10T07:04:48;18.90;99.90
48535;DHT22;34323;52.022;5.686;2023-05-10T07:07:14;19.10;99.90
48535;DHT22;34323;52.022;5.686;2023-05-10T07:09:39;19.20;99.90
48535;DHT22;34323;52.022;5.686;2023-05-10T07:12:05;19.30;99.90
48535;DHT22;34323;52.022;5.686;2023-05-10T07:14:30;19.50;99.90
48535;DHT22;34323;52.022;5.686;2023-05-10T07:16:56;19.50;99.90
48535;DHT22;34323;52.022;5.686;2023-05-10T07:19:22;19.50;99.90
48535;DHT22;34323;52.022;5.686;2023-05-10T07:21:47;19.60;99.90
48535;DHT22;34323;52.022;5.686;2023-05-10T07:24:13;19.50;99.90
48535;DHT22;34323;52.022;5.686;2023-05-10T07:26:38;19.60;99.90
48535;DHT22;34323;52.022;5.686;2023-05-10T07:29:04;19.60;99.90
48535;DHT22;34323;52.022;5.686;2023-05-10T07:31:30;19.40;99.90
48535;DHT22;34323;52.022;5.686;2023-05-10T07:33:56;19.60;99.90
48535;DHT22;34323;52.022;5.686;2023-05-10T07:36:21;19.70;99.90
48535;DHT22;34323;52.022;5.686;2023-05-10T07:38:47;19.70;99.90
48535;DHT22;34323;52.022;5.686;2023-05-10T07:41:13;19.50;99.90
48535;DHT22;34323;52.022;5.686;2023-05-10T07:43:38;19.60;99.90
48535;DHT22;34323;52.022;5.686;2023-05-10T07:46:04;19.60;99.90
48535;DHT22;34323;52.022;5.686;2023-05-10T07:48:30;19.80;99.90
48535;DHT22;34323;52.022;5.686;2023-05-10T07:50:56;19.90;99.90
48535;DHT22;34323;52.022;5.686;2023-05-10T07:53:22;20.00;99.90
48535;DHT22;34323;52.022;5.686;2023-05-10T07:55:51;19.80;99.90
48535;DHT22;34323;52.022;5.686;2023-05-10T07:58:17;19.90;99.90
48535;DHT22;34323;52.022;5.686;2023-05-10T08:00:43;20.00;99.90
48535;DHT22;34323;52.022;5.686;2023-05-10T08:03:08;20.10;99.90
48535;DHT22;34323;52.022;5.686;2023-05-10T08:05:34;20.00;99.90
48535;DHT22;34323;52.022;5.686;2023-05-10T08:07:59;20.00;99.90
48535;DHT22;34323;52.022;5.686;2023-05-10T08:10:25;19.70;99.90
48535;DHT22;34323;52.022;5.686;2023-05-10T08:12:51;19.70;99.90
48535;DHT22;34323;52.022;5.686;2023-05-10T08:15:16;19.90;99.90
48535;DHT22;34323;52.022;5.686;2023-05-10T08:17:42;20.00;99.90
48535;DHT22;34323;52.022;5.686;2023-05-10T08:20:08;20.10;99.90
48535;DHT22;34323;52.022;5.686;2023-05-10T08:22:34;19.70;99.90
48535;DHT22;34323;52.022;5.686;2023-05-10T08:25:00;19.40;99.90
48535;DHT22;34323;52.022;5.686;2023-05-10T08:27:25;19.20;99.90
48535;DHT22;34323;52.022;5.686;2023-05-10T08:29:51;18.80;99.90
48535;DHT22;34323;52.022;5.686;2023-05-10T08:32:17;18.60;99.90
48535;DHT22;34323;52.022;5.686;2023-05-10T08:34:42;18.60;99.90
48535;DHT22;34323;52.022;5.686;2023-05-10T08:37:08;18.80;99.90
48535;DHT22;34323;52.022;5.686;2023-05-10T08:39:35;19.00;99.90
48535;DHT22;34323;52.022;5.686;2023-05-10T08:42:03;19.30;99.90
48535;DHT22;34323;52.022;5.686;2023-05-10T08:44:34;19.50;99.90
48535;DHT22;34323;52.022;5.686;2023-05-10T08:47:04;19.50;99.90
48535;DHT22;34323;52.022;5.686;2023-05-10T08:49:31;19.50;99.90
48535;DHT22;34323;52.022;5.686;2023-05-10T08:52:02;19.10;99.90
48535;DHT22;34323;52.022;5.686;2023-05-10T08:54:28;19.30;99.90
48535;DHT22;34323;52.022;5.686;2023-05-10T08:56:55;19.50;99.90
48535;DHT22;34323;52.022;5.686;2023-05-10T08:59:21;19.80;99.90
48535;DHT22;34323;52.022;5.686;2023-05-10T09:01:48;19.90;99.90
48535;DHT22;34323;52.022;5.686;2023-05-10T09:04:15;20.20;99.90
48535;DHT22;34323;52.022;5.686;2023-05-10T09:06:40;20.10;99.90
48535;DHT22;34323;52.022;5.686;2023-05-10T09:09:06;20.00;99.90
48535;DHT22;34323;52.022;5.686;2023-05-10T09:11:32;20.20;99.90
48535;DHT22;34323;52.022;5.686;2023-05-10T09:13:57;20.30;99.90
48535;DHT22;34323;52.022;5.686;2023-05-10T09:16:24;20.40;99.90
48535;DHT22;34323;52.022;5.686;2023-05-10T09:18:49;20.40;99.90
48535;DHT22;34323;52.022;5.686;2023-05-10T09:21:15;20.50;99.90
48535;DHT22;34323;52.022;5.686;2023-05-10T09:23:44;20.40;99.90
48535;DHT22;34323;52.022;5.686;2023-05-10T09:26:10;20.40;99.90
48535;DHT22;34323;52.022;5.686;2023-05-10T09:28:59;20.30;99.90
48535;DHT22;34323;52.022;5.686;2023-05-10T09:34:08;20.70;99.90
48535;DHT22;34323;52.022;5.686;2023-05-10T09:36:34;20.70;99.90
48535;DHT22;34323;52.022;5.686;2023-05-10T09:38:59;20.80;99.90
48535;DHT22;34323;52.022;5.686;2023-05-10T09:41:25;20.90;99.90
48535;DHT22;34323;52.022;5.686;2023-05-10T09:43:55;20.60;99.90
48535;DHT22;34323;52.022;5.686;2023-05-10T09:46:21;20.50;99.90
48535;DHT22;34323;52.022;5.686;2023-05-10T09:48:48;20.40;99.90
48535;DHT22;34323;52.022;5.686;2023-05-10T09:51:24;20.30;99.90
48535;DHT22;34323;52.022;5.686;2023-05-10T09:54:28;20.30;99.90
48535;DHT22;34323;52.022;5.686;2023-05-10T09:56:54;20.10;99.90
48535;DHT22;34323;52.022;5.686;2023-05-10T09:59:20;20.00;99.90
48535;DHT22;34323;52.022;5.686;2023-05-10T10:01:52;20.20;99.90
48535;DHT22;34323;52.022;5.686;2023-05-10T10:04:18;20.40;99.90
48535;DHT22;34323;52.022;5.686;2023-05-10T10:06:45;21.00;99.90
48535;DHT22;34323;52.022;5.686;2023-05-10T10:09:10;21.00;99.90
48535;DHT22;34323;52.022;5.686;2023-05-10T10:11:37;21.30;99.90
48535;DHT22;34323;52.022;5.686;2023-05-10T10:14:04;21.50;99.90
48535;DHT22;34323;52.022;5.686;2023-05-10T10:16:30;21.70;99.90
48535;DHT22;34323;52.022;5.686;2023-05-10T10:18:56;21.70;99.90
48535;DHT22;34323;52.022;5.686;2023-05-10T10:21:22;21.70;99.90
48535;DHT22;34323;52.022;5.686;2023-05-10T10:23:48;21.70;99.90
48535;DHT22;34323;52.022;5.686;2023-05-10T10:26:15;21.60;99.90
48535;DHT22;34323;52.022;5.686;2023-05-10T10:29:04;21.50;99.90
48535;DHT22;34323;52.022;5.686;2023-05-10T10:31:46;21.50;99.90
48535;DHT22;34323;52.022;5.686;2023-05-10T10:34:24;21.50;99.90
48535;DHT22;34323;52.022;5.686;2023-05-10T10:36:51;21.40;99.90
48535;DHT22;34323;52.022;5.686;2023-05-10T10:39:18;21.50;99.90
48535;DHT22;34323;52.022;5.686;2023-05-10T10:41:56;21.40;99.90
48535;DHT22;34323;52.022;5.686;2023-05-10T10:44:22;21.60;99.90
48535;DHT22;34323;52.022;5.686;2023-05-10T10:49:26;22.00;99.90
48535;DHT22;34323;52.022;5.686;2023-05-10T10:52:24;21.90;99.90
48535;DHT22;34323;52.022;5.686;2023-05-10T10:57:43;21.90;99.90
48535;DHT22;34323;52.022;5.686;2023-05-10T11:00:19;21.90;99.90
48535;DHT22;34323;52.022;5.686;2023-05-10T11:02:47;21.80;99.90
48535;DHT22;34323;52.022;5.686;2023-05-10T11:05:24;21.50;99.90
48535;DHT22;34323;52.022;5.686;2023-05-10T11:07:56;21.80;99.90
48535;DHT22;34323;52.022;5.686;2023-05-10T11:10:23;21.30;99.90
48535;DHT22;34323;52.022;5.686;2023-05-10T11:13:02;21.50;99.90
48535;DHT22;34323;52.022;5.686;2023-05-10T11:15:29;21.70;99.90
48535;DHT22;34323;52.022;5.686;2023-05-10T11:17:55;21.60;99.90
48535;DHT22;34323;52.022;5.686;2023-05-10T11:20:21;21.60;99.90
48535;DHT22;34323;52.022;5.686;2023-05-10T11:22:53;21.60;99.90
48535;DHT22;34323;52.022;5.686;2023-05-10T11:25:23;21.80;99.90
48535;DHT22;34323;52.022;5.686;2023-05-10T11:27:51;21.90;99.90
48535;DHT22;34323;52.022;5.686;2023-05-10T11:30:17;21.90;99.90
48535;DHT22;34323;52.022;5.686;2023-05-10T11:32:43;21.90;99.90
48535;DHT22;34323;52.022;5.686;2023-05-10T11:35:10;21.90;99.90
48535;DHT22;34323;52.022;5.686;2023-05-10T11:37:37;21.90;99.90
48535;DHT22;34323;52.022;5.686;2023-05-10T11:40:09;22.00;99.90
48535;DHT22;34323;52.022;5.686;2023-05-10T11:42:38;22.10;99.90
48535;DHT22;34323;52.022;5.686;2023-05-10T11:45:05;21.90;99.90
48535;DHT22;34323;52.022;5.686;2023-05-10T11:47:31;21.90;99.90
48535;DHT22;34323;52.022;5.686;2023-05-10T11:49:57;22.30;99.90
48535;DHT22;34323;52.022;5.686;2023-05-10T11:52:23;22.30;99.90
48535;DHT22;34323;52.022;5.686;2023-05-10T11:54:53;22.50;99.90
48535;DHT22;34323;52.022;5.686;2023-05-10T11:57:19;22.70;99.90
48535;DHT22;34323;52.022;5.686;2023-05-10T11:59:46;22.80;99.90
48535;DHT22;34323;52.022;5.686;2023-05-10T12:02:13;22.80;99.90
48535;DHT22;34323;52.022;5.686;2023-05-10T12:04:39;22.80;99.90
48535;DHT22;34323;52.022;5.686;2023-05-10T12:07:05;22.60;99.90
48535;DHT22;34323;52.022;5.686;2023-05-10T12:09:30;22.70;99.90
48535;DHT22;34323;52.022;5.686;2023-05-10T12:11:56;22.90;99.90
48535;DHT22;34323;52.022;5.686;2023-05-10T12:14:22;22.60;99.90
48535;DHT22;34323;52.022;5.686;2023-05-10T12:16:48;22.90;99.90
48535;DHT22;34323;52.022;5.686;2023-05-10T12:19:18;22.80;99.90
48535;DHT22;34323;52.022;5.686;2023-05-10T12:21:45;22.90;99.90
48535;DHT22;34323;52.022;5.686;2023-05-10T12:24:10;23.00;99.90
48535;DHT22;34323;52.022;5.686;2023-05-10T12:26:36;23.20;99.90
48535;DHT22;34323;52.022;5.686;2023-05-10T12:29:12;23.40;99.90
48535;DHT22;34323;52.022;5.686;2023-05-10T12:31:58;23.50;99.90
48535;DHT22;34323;52.022;5.686;2023-05-10T12:36:54;23.00;99.90
48535;DHT22;34323;52.022;5.686;2023-05-10T12:39:20;23.20;99.90
48535;DHT22;34323;52.022;5.686;2023-05-10T12:41:46;23.60;99.90
48535;DHT22;34323;52.022;5.686;2023-05-10T12:44:11;24.10;99.90
48535;DHT22;34323;52.022;5.686;2023-05-10T12:46:37;24.50;99.90
48535;DHT22;34323;52.022;5.686;2023-05-10T12:49:02;24.10;99.90
48535;DHT22;34323;52.022;5.686;2023-05-10T12:51:28;23.60;99.90
48535;DHT22;34323;52.022;5.686;2023-05-10T12:53:54;23.60;99.90
48535;DHT22;34323;52.022;5.686;2023-05-10T12:56:19;23.80;99.90
48535;DHT22;34323;52.022;5.686;2023-05-10T12:58:45;23.90;99.90
48535;DHT22;34323;52.022;5.686;2023-05-10T13:01:14;23.80;99.90
48535;DHT22;34323;52.022;5.686;2023-05-10T13:03:40;22.90;99.90
48535;DHT22;34323;52.022;5.686;2023-05-10T13:06:06;22.90;99.90
48535;DHT22;34323;52.022;5.686;2023-05-10T13:08:32;23.10;99.90
48535;DHT22;34323;52.022;5.686;2023-05-10T13:10:59;23.50;99.90
48535;DHT22;34323;52.022;5.686;2023-05-10T13:13:25;23.60;99.90
48535;DHT22;34323;52.022;5.686;2023-05-10T13:15:51;23.50;99.90
48535;DHT22;34323;52.022;5.686;2023-05-10T13:18:17;23.50;99.90
48535;DHT22;34323;52.022;5.686;2023-05-10T13:20:42;23.30;99.90
48535;DHT22;34323;52.022;5.686;2023-05-10T13:23:09;22.90;99.90
48535;DHT22;34323;52.022;5.686;2023-05-10T13:25:35;22.20;99.90
48535;DHT22;34323;52.022;5.686;2023-05-10T13:28:01;21.80;99.90
48535;DHT22;34323;52.022;5.686;2023-05-10T13:30:27;21.30;99.90
48535;DHT22;34323;52.022;5.686;2023-05-10T13:32:54;20.90;99.90
48535;DHT22;34323;52.022;5.686;2023-05-10T13:35:20;20.40;99.90
48535;DHT22;34323;52.022;5.686;2023-05-10T13:37:45;20.40;99.90
48535;DHT22;34323;52.022;5.686;2023-05-10T13:40:11;20.20;99.90
48535;DHT22;34323;52.022;5.686;2023-05-10T13:42:37;19.60;99.90
48535;DHT22;34323;52.022;5.686;2023-05-10T13:45:03;19.50;99.90
48535;DHT22;34323;52.022;5.686;2023-05-10T13:47:28;20.00;99.90
48535;DHT22;34323;52.022;5.686;2023-05-10T13:49:54;20.50;99.90
48535;DHT22;34323;52.022;5.686;2023-05-10T13:52:20;20.60;99.90
48535;DHT22;34323;52.022;5.686;2023-05-10T13:54:45;20.50;99.90
48535;DHT22;34323;52.022;5.686;2023-05-10T13:57:11;20.20;99.90
48535;DHT22;34323;52.022;5.686;2023-05-10T13:59:39;20.30;99.90
48535;DHT22;34323;52.022;5.686;2023-05-10T14:02:04;20.30;99.90
48535;DHT22;34323;52.022;5.686;2023-05-10T14:04:30;20.40;99.90
48535;DHT22;34323;52.022;5.686;2023-05-10T14:06:57;20.50;99.90
48535;DHT22;34323;52.022;5.686;2023-05-10T14:09:22;20.20;99.90
48535;DHT22;34323;52.022;5.686;2023-05-10T14:11:48;20.00;99.90
48535;DHT22;34323;52.022;5.686;2023-05-10T14:14:13;20.10;99.90
48535;DHT22;34323;52.022;5.686;2023-05-10T14:16:43;20.20;99.90
48535;DHT22;34323;52.022;5.686;2023-05-10T14:19:10;20.30;99.90
48535;DHT22;34323;52.022;5.686;2023-05-10T14:21:35;20.20;99.90
48535;DHT22;34323;52.022;5.686;2023-05-10T14:24:01;20.10;99.90
48535;DHT22;34323;52.022;5.686;2023-05-10T14:26:26;20.30;99.90
48535;DHT22;34323;52.022;5.686;2023-05-10T14:28:52;20.20;99.90
48535;DHT22;34323;52.022;5.686;2023-05-10T14:31:18;20.20;99.90
48535;DHT22;34323;52.022;5.686;2023-05-10T14:33:48;20.20;99.90
48535;DHT22;34323;52.022;5.686;2023-05-10T14:36:13;20.00;99.90
48535;DHT22;34323;52.022;5.686;2023-05-10T14:38:40;20.10;99.90
48535;DHT22;34323;52.022;5.686;2023-05-10T14:41:05;20.00;99.90
48535;DHT22;34323;52.022;5.686;2023-05-10T14:43:31;20.10;99.90
48535;DHT22;34323;52.022;5.686;2023-05-10T14:45:56;20.10;99.90
48535;DHT22;34323;52.022;5.686;2023-05-10T14:48:22;20.00;99.90
48535;DHT22;34323;52.022;5.686;2023-05-10T14:50:48;20.20;99.90
48535;DHT22;34323;52.022;5.686;2023-05-10T14:53:15;20.20;99.90
48535;DHT22;34323;52.022;5.686;2023-05-10T14:55:40;20.30;99.90
48535;DHT22;34323;52.022;5.686;2023-05-10T14:58:06;20.40;99.90
48535;DHT22;34323;52.022;5.686;2023-05-10T15:00:32;20.40;99.90
48535;DHT22;34323;52.022;5.686;2023-05-10T15:02:57;20.50;99.90
48535;DHT22;34323;52.022;5.686;2023-05-10T15:05:23;20.70;99.90
48535;DHT22;34323;52.022;5.686;2023-05-10T15:07:48;20.90;99.90
48535;DHT22;34323;52.022;5.686;2023-05-10T15:10:14;21.00;99.90
48535;DHT22;34323;52.022;5.686;2023-05-10T15:12:40;21.00;99.90
48535;DHT22;34323;52.022;5.686;2023-05-10T15:15:06;21.10;99.90
48535;DHT22;34323;52.022;5.686;2023-05-10T15:17:33;21.30;99.90
48535;DHT22;34323;52.022;5.686;2023-05-10T15:19:58;21.10;99.90
48535;DHT22;34323;52.022;5.686;2023-05-10T15:22:24;21.20;99.90
48535;DHT22;34323;52.022;5.686;2023-05-10T15:24:49;21.30;99.90
48535;DHT22;34323;52.022;5.686;2023-05-10T15:27:15;21.50;99.90
48535;DHT22;34323;52.022;5.686;2023-05-10T15:29:40;21.60;99.90
48535;DHT22;34323;52.022;5.686;2023-05-10T15:32:06;21.60;99.90
48535;DHT22;34323;52.022;5.686;2023-05-10T15:34:32;21.60;99.90
48535;DHT22;34323;52.022;5.686;2023-05-10T15:36:57;21.60;99.90
48535;DHT22;34323;52.022;5.686;2023-05-10T15:39:23;21.90;99.90
48535;DHT22;34323;52.022;5.686;2023-05-10T15:41:49;22.00;99.90
48535;DHT22;34323;52.022;5.686;2023-05-10T15:44:14;22.10;99.90
48535;DHT22;34323;52.022;5.686;2023-05-10T15:46:40;22.20;99.90
48535;DHT22;34323;52.022;5.686;2023-05-10T15:49:06;22.20;99.90
48535;DHT22;34323;52.022;5.686;2023-05-10T15:51:32;22.30;99.90
48535;DHT22;34323;52.022;5.686;2023-05-10T15:54:00;22.10;99.90
48535;DHT22;34323;52.022;5.686;2023-05-10T15:56:27;21.80;99.90